sensor_id;sensor_type;location;lat;lon;timestamp;temperature;humidity
49511;DHT22;35413;48.776;9.204;2022-09-25T00:00:54;23.20;66.40
49511;DHT22;35413;48.776;9.204;2022-09-25T00:03:21;23.20;66.50
49511;DHT22;35413;48.776;9.204;2022-09-25T00:05:47;23.20;66.40
49511;DHT22;35413;48.776;9.204;2022-09-25T00:08:14;23.20;66.40
49511;DHT22;35413;48.776;9.204;2022-09-25T00:10:43;23.20;66.80
49511;DHT22;35413;48.776;9.204;2022-09-25T00:13:09;23.20;66.20
49511;DHT22;35413;48.776;9.204;2022-09-25T00:15:35;23.20;66.20
49511;DHT22;35413;48.776;9.204;2022-09-25T00:18:01;23.20;66.30
49511;DHT22;35413;48.776;9.204;2022-09-25T00:20:27;23.20;66.30
49511;DHT22;35413;48.776;9.204;2022-09-25T00:22:53;23.20;66.30
49511;DHT22;35413;48.776;9.204;2022-09-25T00:25:19;23.20;66.20
49511;DHT22;35413;48.776;9.204;2022-09-25T00:27:45;23.20;66.20
49511;DHT22;35413;48.776;9.204;2022-09-25T00:30:12;23.20;66.20
49511;DHT22;35413;48.776;9.204;2022-09-25T00:32:38;23.20;66.20
49511;DHT22;35413;48.776;9.204;2022-09-25T00:35:04;23.20;66.10
49511;DHT22;35413;48.776;9.204;2022-09-25T00:37:34;23.20;66.10
49511;DHT22;35413;48.776;9.204;2022-09-25T00:40:01;23.20;65.90
49511;DHT22;35413;48.776;9.204;2022-09-25T00:42:26;23.10;65.30
49511;DHT22;35413;48.776;9.204;2022-09-25T00:50:16;23.00;65.30
49511;DHT22;35413;48.776;9.204;2022-09-25T01:01:15;22.90;65.20
49511;DHT22;35413;48.776;9.204;2022-09-25T01:03:41;22.80;65.40
49511;DHT22;35413;48.776;9.204;2022-09-25T01:06:09;22.80;65.50
49511;DHT22;35413;48.776;9.204;2022-09-25T01:08:37;22.80;65.30
49511;DHT22;35413;48.776;9.204;2022-09-25T01:11:03;22.80;65.20
49511;DHT22;35413;48.776;9.204;2022-09-25T01:13:29;22.70;65.30
49511;DHT22;35413;48.776;9.204;2022-09-25T01:15:57;22.70;65.30
49511;DHT22;35413;48.776;9.204;2022-09-25T01:21:26;22.70;65.40
49511;DHT22;35413;48.776;9.204;2022-09-25T01:27:20;22.70;65.30
49511;DHT22;35413;48.776;9.204;2022-09-25T01:32:43;22.70;65.60
49511;DHT22;35413;48.776;9.204;2022-09-25T01:35:15;22.60;65.50
49511;DHT22;35413;48.776;9.204;2022-09-25T01:40:47;22.60;65.40
49511;DHT22;35413;48.776;9.204;2022-09-25T01:43:22;22.60;65.40
49511;DHT22;35413;48.776;9.204;2022-09-25T01:45:52;22.60;65.40
49511;DHT22;35413;48.776;9.204;2022-09-25T01:48:23;22.60;65.20
49511;DHT22;35413;48.776;9.204;2022-09-25T01:50:59;22.60;65.40
49511;DHT22;35413;48.776;9.204;2022-09-25T01:53:31;22.60;65.20
49511;DHT22;35413;48.776;9.204;2022-09-25T01:56:03;22.60;65.00
49511;DHT22;35413;48.776;9.204;2022-09-25T01:58:38;22.60;65.40
49511;DHT22;35413;48.776;9.204;2022-09-25T02:01:31;22.50;65.20
49511;DHT22;35413;48.776;9.204;2022-09-25T02:04:00;22.50;65.40
49511;DHT22;35413;48.776;9.204;2022-09-25T02:06:28;22.50;65.40
49511;DHT22;35413;48.776;9.204;2022-09-25T02:09:02;22.50;65.30
49511;DHT22;35413;48.776;9.204;2022-09-25T02:11:31;22.50;65.30
49511;DHT22;35413;48.776;9.204;2022-09-25T02:14:11;22.50;65.30
49511;DHT22;35413;48.776;9.204;2022-09-25T02:16:40;22.50;65.20
49511;DHT22;35413;48.776;9.204;2022-09-25T02:19:14;22.50;65.20
49511;DHT22;35413;48.776;9.204;2022-09-25T02:22:21;22.50;65.30
49511;DHT22;35413;48.776;9.204;2022-09-25T02:24:56;22.50;65.20
49511;DHT22;35413;48.776;9.204;2022-09-25T02:27:26;22.50;65.30
49511;DHT22;35413;48.776;9.204;2022-09-25T02:29:52;22.50;65.20
49511;DHT22;35413;48.776;9.204;2022-09-25T02:32:22;22.50;65.20
49511;DHT22;35413;48.776;9.204;2022-09-25T02:34:50;22.50;65.30
49511;DHT22;35413;48.776;9.204;2022-09-25T02:37:17;22.50;65.30
49511;DHT22;35413;48.776;9.204;2022-09-25T02:39:48;22.40;65.20
49511;DHT22;35413;48.776;9.204;2022-09-25T02:45:18;22.50;65.20
49511;DHT22;35413;48.776;9.204;2022-09-25T02:50:33;22.40;65.20
49511;DHT22;35413;48.776;9.204;2022-09-25T02:53:08;22.50;65.20
49511;DHT22;35413;48.776;9.204;2022-09-25T02:55:59;22.40;65.10
49511;DHT22;35413;48.776;9.204;2022-09-25T02:58:49;22.40;65.10
49511;DHT22;35413;48.776;9.204;2022-09-25T03:01:18;22.40;65.10
49511;DHT22;35413;48.776;9.204;2022-09-25T03:03:45;22.40;65.10
49511;DHT22;35413;48.776;9.204;2022-09-25T03:06:12;22.40;65.10
49511;DHT22;35413;48.776;9.204;2022-09-25T03:08:41;22.40;65.00
49511;DHT22;35413;48.776;9.204;2022-09-25T03:11:16;22.40;65.00
49511;DHT22;35413;48.776;9.204;2022-09-25T03:13:43;22.40;64.80
49511;DHT22;35413;48.776;9.204;2022-09-25T03:16:19;22.40;64.80
49511;DHT22;35413;48.776;9.204;2022-09-25T03:18:46;22.40;65.00
49511;DHT22;35413;48.776;9.204;2022-09-25T03:21:12;22.40;64.90
49511;DHT22;35413;48.776;9.204;2022-09-25T03:23:38;22.40;64.80
49511;DHT22;35413;48.776;9.204;2022-09-25T03:26:04;22.40;64.80
49511;DHT22;35413;48.776;9.204;2022-09-25T03:28:30;22.40;64.70
49511;DHT22;35413;48.776;9.204;2022-09-25T03:31:02;22.40;64.70
49511;DHT22;35413;48.776;9.204;2022-09-25T03:33:33;22.40;64.70
49511;DHT22;35413;48.776;9.204;2022-09-25T03:36:01;22.40;64.70
49511;DHT22;35413;48.776;9.204;2022-09-25T03:38:27;22.30;64.60
49511;DHT22;35413;48.776;9.204;2022-09-25T03:40:53;22.40;64.60
49511;DHT22;35413;48.776;9.204;2022-09-25T03:43:18;22.40;64.60
49511;DHT22;35413;48.776;9.204;2022-09-25T03:45:44;22.40;64.50
49511;DHT22;35413;48.776;9.204;2022-09-25T03:48:09;22.40;64.50
49511;DHT22;35413;48.776;9.204;2022-09-25T03:50:35;22.40;64.50
49511;DHT22;35413;48.776;9.204;2022-09-25T03:53:00;22.30;64.40
49511;DHT22;35413;48.776;9.204;2022-09-25T03:55:26;22.30;64.30
49511;DHT22;35413;48.776;9.204;2022-09-25T03:57:51;22.30;64.30
49511;DHT22;35413;48.776;9.204;2022-09-25T04:00:17;22.40;64.40
49511;DHT22;35413;48.776;9.204;2022-09-25T04:02:43;22.40;64.30
49511;DHT22;35413;48.776;9.204;2022-09-25T04:05:08;22.30;64.20
49511;DHT22;35413;48.776;9.204;2022-09-25T04:07:34;22.30;64.20
49511;DHT22;35413;48.776;9.204;2022-09-25T04:10:00;22.40;64.30
49511;DHT22;35413;48.776;9.204;2022-09-25T04:12:25;22.30;64.20
49511;DHT22;35413;48.776;9.204;2022-09-25T04:14:51;22.30;64.10
49511;DHT22;35413;48.776;9.204;2022-09-25T04:17:17;22.40;64.10
49511;DHT22;35413;48.776;9.204;2022-09-25T04:19:43;22.30;64.00
49511;DHT22;35413;48.776;9.204;2022-09-25T04:22:08;22.40;64.00
49511;DHT22;35413;48.776;9.204;2022-09-25T04:24:34;22.30;64.60
49511;DHT22;35413;48.776;9.204;2022-09-25T04:27:20;22.30;63.90
49511;DHT22;35413;48.776;9.204;2022-09-25T04:29:47;22.30;63.90
49511;DHT22;35413;48.776;9.204;2022-09-25T04:32:14;22.30;63.80
49511;DHT22;35413;48.776;9.204;2022-09-25T04:34:58;22.30;63.80
49511;DHT22;35413;48.776;9.204;2022-09-25T04:37:24;22.30;63.70
49511;DHT22;35413;48.776;9.204;2022-09-25T04:39:55;22.30;63.70
49511;DHT22;35413;48.776;9.204;2022-09-25T04:42:21;22.30;63.70
49511;DHT22;35413;48.776;9.204;2022-09-25T04:44:53;22.30;63.70
49511;DHT22;35413;48.776;9.204;2022-09-25T04:47:20;22.30;63.60
49511;DHT22;35413;48.776;9.204;2022-09-25T04:49:47;22.30;63.70
49511;DHT22;35413;48.776;9.204;2022-09-25T04:52:14;22.30;63.60
49511;DHT22;35413;48.776;9.204;2022-09-25T04:54:41;22.30;63.50
49511;DHT22;35413;48.776;9.204;2022-09-25T04:57:08;22.30;63.50
49511;DHT22;35413;48.776;9.204;2022-09-25T04:59:33;22.30;63.50
49511;DHT22;35413;48.776;9.204;2022-09-25T05:01:59;22.30;63.40
49511;DHT22;35413;48.776;9.204;2022-09-25T05:04:25;22.30;63.50
49511;DHT22;35413;48.776;9.204;2022-09-25T05:06:50;22.30;63.50
49511;DHT22;35413;48.776;9.204;2022-09-25T05:09:16;22.30;63.40
49511;DHT22;35413;48.776;9.204;2022-09-25T05:11:42;22.30;63.30
49511;DHT22;35413;48.776;9.204;2022-09-25T05:14:07;22.30;63.30
49511;DHT22;35413;48.776;9.204;2022-09-25T05:16:33;22.30;63.20
49511;DHT22;35413;48.776;9.204;2022-09-25T05:18:59;22.30;63.20
49511;DHT22;35413;48.776;9.204;2022-09-25T05:21:24;22.30;63.20
49511;DHT22;35413;48.776;9.204;2022-09-25T05:23:50;22.30;63.10
49511;DHT22;35413;48.776;9.204;2022-09-25T05:26:16;22.30;63.10
49511;DHT22;35413;48.776;9.204;2022-09-25T05:28:41;22.30;63.10
49511;DHT22;35413;48.776;9.204;2022-09-25T05:31:08;22.30;63.00
49511;DHT22;35413;48.776;9.204;2022-09-25T05:33:34;22.20;63.00
49511;DHT22;35413;48.776;9.204;2022-09-25T05:36:04;22.30;63.00
49511;DHT22;35413;48.776;9.204;2022-09-25T05:38:34;22.30;63.00
49511;DHT22;35413;48.776;9.204;2022-09-25T05:41:05;22.30;62.90
49511;DHT22;35413;48.776;9.204;2022-09-25T05:43:32;22.30;62.90
49511;DHT22;35413;48.776;9.204;2022-09-25T05:45:58;22.30;62.90
49511;DHT22;35413;48.776;9.204;2022-09-25T05:48:24;22.30;62.90
49511;DHT22;35413;48.776;9.204;2022-09-25T05:50:54;22.20;62.80
49511;DHT22;35413;48.776;9.204;2022-09-25T05:53:20;22.30;62.80
49511;DHT22;35413;48.776;9.204;2022-09-25T05:55:53;22.30;62.80
49511;DHT22;35413;48.776;9.204;2022-09-25T05:58:19;22.20;62.70
49511;DHT22;35413;48.776;9.204;2022-09-25T06:00:46;22.30;62.70
49511;DHT22;35413;48.776;9.204;2022-09-25T06:03:12;22.30;62.70
49511;DHT22;35413;48.776;9.204;2022-09-25T06:05:38;22.30;62.70
49511;DHT22;35413;48.776;9.204;2022-09-25T06:08:08;22.30;62.60
49511;DHT22;35413;48.776;9.204;2022-09-25T06:10:34;22.30;62.50
49511;DHT22;35413;48.776;9.204;2022-09-25T06:13:01;22.20;62.40
49511;DHT22;35413;48.776;9.204;2022-09-25T06:15:33;22.30;62.50
49511;DHT22;35413;48.776;9.204;2022-09-25T06:18:01;22.20;62.40
49511;DHT22;35413;48.776;9.204;2022-09-25T06:20:26;22.30;62.40
49511;DHT22;35413;48.776;9.204;2022-09-25T06:22:53;22.30;62.40
49511;DHT22;35413;48.776;9.204;2022-09-25T06:25:21;22.30;62.30
49511;DHT22;35413;48.776;9.204;2022-09-25T06:27:50;22.20;62.30
49511;DHT22;35413;48.776;9.204;2022-09-25T06:30:16;22.20;62.20
49511;DHT22;35413;48.776;9.204;2022-09-25T06:32:43;22.20;62.20
49511;DHT22;35413;48.776;9.204;2022-09-25T06:35:09;22.30;62.30
49511;DHT22;35413;48.776;9.204;2022-09-25T06:37:34;22.20;62.20
49511;DHT22;35413;48.776;9.204;2022-09-25T06:40:00;22.30;62.20
49511;DHT22;35413;48.776;9.204;2022-09-25T06:42:25;22.30;62.10
49511;DHT22;35413;48.776;9.204;2022-09-25T06:44:51;22.30;62.10
49511;DHT22;35413;48.776;9.204;2022-09-25T06:47:17;22.30;62.10
49511;DHT22;35413;48.776;9.204;2022-09-25T06:49:42;22.30;62.10
49511;DHT22;35413;48.776;9.204;2022-09-25T06:52:08;22.40;62.00
49511;DHT22;35413;48.776;9.204;2022-09-25T06:54:34;22.40;62.60
49511;DHT22;35413;48.776;9.204;2022-09-25T06:56:59;22.40;61.80
49511;DHT22;35413;48.776;9.204;2022-09-25T06:59:25;22.40;61.80
49511;DHT22;35413;48.776;9.204;2022-09-25T07:01:50;22.40;61.70
49511;DHT22;35413;48.776;9.204;2022-09-25T07:04:16;22.50;61.60
49511;DHT22;35413;48.776;9.204;2022-09-25T07:06:42;22.50;61.60
49511;DHT22;35413;48.776;9.204;2022-09-25T07:09:08;22.50;61.50
49511;DHT22;35413;48.776;9.204;2022-09-25T07:11:33;22.50;61.40
49511;DHT22;35413;48.776;9.204;2022-09-25T07:13:59;22.50;61.40
49511;DHT22;35413;48.776;9.204;2022-09-25T07:16:27;22.50;61.30
49511;DHT22;35413;48.776;9.204;2022-09-25T07:18:55;22.50;61.30
49511;DHT22;35413;48.776;9.204;2022-09-25T07:21:23;22.50;61.30
49511;DHT22;35413;48.776;9.204;2022-09-25T07:23:52;22.50;61.20
49511;DHT22;35413;48.776;9.204;2022-09-25T07:26:18;22.50;61.20
49511;DHT22;35413;48.776;9.204;2022-09-25T07:28:47;22.50;61.20
49511;DHT22;35413;48.776;9.204;2022-09-25T07:31:19;22.50;61.00
49511;DHT22;35413;48.776;9.204;2022-09-25T07:33:46;22.50;61.60
49511;DHT22;35413;48.776;9.204;2022-09-25T07:36:13;22.50;61.00
49511;DHT22;35413;48.776;9.204;2022-09-25T07:38:39;22.60;61.00
49511;DHT22;35413;48.776;9.204;2022-09-25T07:41:06;22.50;60.90
49511;DHT22;35413;48.776;9.204;2022-09-25T07:43:33;22.60;61.00
49511;DHT22;35413;48.776;9.204;2022-09-25T07:45:59;22.60;60.90
49511;DHT22;35413;48.776;9.204;2022-09-25T07:48:25;22.60;60.90
49511;DHT22;35413;48.776;9.204;2022-09-25T07:50:51;22.60;60.90
49511;DHT22;35413;48.776;9.204;2022-09-25T07:53:17;22.60;60.80
49511;DHT22;35413;48.776;9.204;2022-09-25T07:55:44;22.60;61.40
49511;DHT22;35413;48.776;9.204;2022-09-25T07:58:10;22.60;60.80
49511;DHT22;35413;48.776;9.204;2022-09-25T08:00:36;22.70;60.80
49511;DHT22;35413;48.776;9.204;2022-09-25T08:03:02;22.70;60.70
49511;DHT22;35413;48.776;9.204;2022-09-25T08:05:27;22.80;60.60
49511;DHT22;35413;48.776;9.204;2022-09-25T08:07:54;22.80;60.40
49511;DHT22;35413;48.776;9.204;2022-09-25T08:10:20;22.80;60.20
49511;DHT22;35413;48.776;9.204;2022-09-25T08:12:46;22.80;60.30
49511;DHT22;35413;48.776;9.204;2022-09-25T08:15:11;22.80;60.60
49511;DHT22;35413;48.776;9.204;2022-09-25T08:17:39;22.80;60.60
49511;DHT22;35413;48.776;9.204;2022-09-25T08:20:06;22.90;60.80
49511;DHT22;35413;48.776;9.204;2022-09-25T08:22:31;22.90;61.30
49511;DHT22;35413;48.776;9.204;2022-09-25T08:24:58;23.00;61.60
49511;DHT22;35413;48.776;9.204;2022-09-25T08:27:26;23.00;61.80
49511;DHT22;35413;48.776;9.204;2022-09-25T08:29:52;23.00;61.70
49511;DHT22;35413;48.776;9.204;2022-09-25T08:32:17;23.00;61.60
49511;DHT22;35413;48.776;9.204;2022-09-25T08:34:43;23.00;61.50
49511;DHT22;35413;48.776;9.204;2022-09-25T08:37:09;23.00;61.40
49511;DHT22;35413;48.776;9.204;2022-09-25T08:39:35;23.00;61.40
49511;DHT22;35413;48.776;9.204;2022-09-25T08:42:01;23.10;61.40
49511;DHT22;35413;48.776;9.204;2022-09-25T08:44:40;23.10;61.40
49511;DHT22;35413;48.776;9.204;2022-09-25T08:47:20;23.10;61.40
49511;DHT22;35413;48.776;9.204;2022-09-25T08:50:18;23.10;61.30
49511;DHT22;35413;48.776;9.204;2022-09-25T08:52:48;23.10;61.10
49511;DHT22;35413;48.776;9.204;2022-09-25T08:55:26;23.10;61.10
49511;DHT22;35413;48.776;9.204;2022-09-25T08:58:25;23.20;61.10
49511;DHT22;35413;48.776;9.204;2022-09-25T09:00:57;23.20;61.00
49511;DHT22;35413;48.776;9.204;2022-09-25T09:03:25;23.20;60.90
49511;DHT22;35413;48.776;9.204;2022-09-25T09:06:15;23.20;60.80
49511;DHT22;35413;48.776;9.204;2022-09-25T09:08:45;23.20;60.60
49511;DHT22;35413;48.776;9.204;2022-09-25T09:11:13;23.20;60.60
49511;DHT22;35413;48.776;9.204;2022-09-25T09:14:03;23.20;60.60
49511;DHT22;35413;48.776;9.204;2022-09-25T09:16:38;23.20;60.70
49511;DHT22;35413;48.776;9.204;2022-09-25T09:19:05;23.20;61.20
49511;DHT22;35413;48.776;9.204;2022-09-25T09:21:37;23.20;60.90
49511;DHT22;35413;48.776;9.204;2022-09-25T09:24:16;23.10;60.90
49511;DHT22;35413;48.776;9.204;2022-09-25T09:29:49;23.10;61.00
49511;DHT22;35413;48.776;9.204;2022-09-25T09:32:31;23.00;61.20
49511;DHT22;35413;48.776;9.204;2022-09-25T09:37:47;23.10;60.90
49511;DHT22;35413;48.776;9.204;2022-09-25T09:42:59;23.10;60.60
49511;DHT22;35413;48.776;9.204;2022-09-25T09:45:51;23.10;60.50
49511;DHT22;35413;48.776;9.204;2022-09-25T09:48:38;23.10;60.50
49511;DHT22;35413;48.776;9.204;2022-09-25T09:51:20;23.10;60.40
49511;DHT22;35413;48.776;9.204;2022-09-25T09:58:57;23.10;60.20
49511;DHT22;35413;48.776;9.204;2022-09-25T10:01:27;23.20;60.40
49511;DHT22;35413;48.776;9.204;2022-09-25T10:06:37;23.20;59.80
49511;DHT22;35413;48.776;9.204;2022-09-25T10:09:04;23.20;59.60
49511;DHT22;35413;48.776;9.204;2022-09-25T10:11:31;23.20;59.60
49511;DHT22;35413;48.776;9.204;2022-09-25T10:14:01;23.20;59.40
49511;DHT22;35413;48.776;9.204;2022-09-25T10:16:27;23.20;59.40
49511;DHT22;35413;48.776;9.204;2022-09-25T10:19:21;23.10;59.20
49511;DHT22;35413;48.776;9.204;2022-09-25T10:21:52;23.20;59.10
49511;DHT22;35413;48.776;9.204;2022-09-25T10:24:51;23.20;59.40
49511;DHT22;35413;48.776;9.204;2022-09-25T10:27:33;23.10;59.00
49511;DHT22;35413;48.776;9.204;2022-09-25T10:32:43;23.20;59.10
49511;DHT22;35413;48.776;9.204;2022-09-25T10:38:02;23.20;59.10
49511;DHT22;35413;48.776;9.204;2022-09-25T10:40:31;23.20;58.70
49511;DHT22;35413;48.776;9.204;2022-09-25T10:45:33;23.20;58.80
49511;DHT22;35413;48.776;9.204;2022-09-25T10:47:59;23.30;58.90
49511;DHT22;35413;48.776;9.204;2022-09-25T10:50:45;23.30;59.00
49511;DHT22;35413;48.776;9.204;2022-09-25T10:53:29;23.30;58.90
49511;DHT22;35413;48.776;9.204;2022-09-25T10:56:02;23.30;59.00
49511;DHT22;35413;48.776;9.204;2022-09-25T11:01:06;23.30;59.10
49511;DHT22;35413;48.776;9.204;2022-09-25T11:03:36;23.20;59.00
49511;DHT22;35413;48.776;9.204;2022-09-25T11:06:25;23.20;59.10
49511;DHT22;35413;48.776;9.204;2022-09-25T11:11:29;23.20;59.90
49511;DHT22;35413;48.776;9.204;2022-09-25T11:13:57;23.30;59.80
49511;DHT22;35413;48.776;9.204;2022-09-25T11:16:52;23.30;59.60
49511;DHT22;35413;48.776;9.204;2022-09-25T11:19:31;23.30;59.80
49511;DHT22;35413;48.776;9.204;2022-09-25T11:22:13;23.20;60.10
49511;DHT22;35413;48.776;9.204;2022-09-25T11:27:37;23.20;60.00
49511;DHT22;35413;48.776;9.204;2022-09-25T11:30:16;23.20;60.00
49511;DHT22;35413;48.776;9.204;2022-09-25T11:49:15;23.30;59.60
49511;DHT22;35413;48.776;9.204;2022-09-25T12:08:38;23.30;59.10
49511;DHT22;35413;48.776;9.204;2022-09-25T12:16:48;23.30;58.90
49511;DHT22;35413;48.776;9.204;2022-09-25T12:22:34;23.30;58.90
49511;DHT22;35413;48.776;9.204;2022-09-25T12:25:34;23.30;58.70
49511;DHT22;35413;48.776;9.204;2022-09-25T12:36:19;23.40;58.50
49511;DHT22;35413;48.776;9.204;2022-09-25T12:38:50;23.40;58.30
49511;DHT22;35413;48.776;9.204;2022-09-25T12:44:18;23.30;59.00
49511;DHT22;35413;48.776;9.204;2022-09-25T12:46:54;23.30;59.30
49511;DHT22;35413;48.776;9.204;2022-09-25T12:49:35;23.30;59.60
49511;DHT22;35413;48.776;9.204;2022-09-25T12:55:34;23.30;59.80
49511;DHT22;35413;48.776;9.204;2022-09-25T12:58:15;23.30;59.60
49511;DHT22;35413;48.776;9.204;2022-09-25T13:00:47;23.40;59.60
49511;DHT22;35413;48.776;9.204;2022-09-25T13:03:25;23.40;59.40
49511;DHT22;35413;48.776;9.204;2022-09-25T13:06:18;23.40;59.40
49511;DHT22;35413;48.776;9.204;2022-09-25T13:09:01;23.40;59.30
49511;DHT22;35413;48.776;9.204;2022-09-25T13:11:39;23.40;59.30
49511;DHT22;35413;48.776;9.204;2022-09-25T13:14:32;23.40;59.10
49511;DHT22;35413;48.776;9.204;2022-09-25T13:17:00;23.40;58.90
49511;DHT22;35413;48.776;9.204;2022-09-25T13:19:30;23.40;58.80
49511;DHT22;35413;48.776;9.204;2022-09-25T13:22:19;23.40;58.80
49511;DHT22;35413;48.776;9.204;2022-09-25T13:27:22;23.40;58.60
49511;DHT22;35413;48.776;9.204;2022-09-25T13:29:52;23.40;58.70
49511;DHT22;35413;48.776;9.204;2022-09-25T13:32:22;23.40;58.70
49511;DHT22;35413;48.776;9.204;2022-09-25T13:34:55;23.40;58.60
49511;DHT22;35413;48.776;9.204;2022-09-25T13:37:34;23.40;58.60
49511;DHT22;35413;48.776;9.204;2022-09-25T13:40:08;23.40;58.50
49511;DHT22;35413;48.776;9.204;2022-09-25T13:45:41;23.40;58.20
49511;DHT22;35413;48.776;9.204;2022-09-25T13:48:11;23.40;58.10
49511;DHT22;35413;48.776;9.204;2022-09-25T13:50:46;23.40;58.00
49511;DHT22;35413;48.776;9.204;2022-09-25T13:53:24;23.40;57.80
49511;DHT22;35413;48.776;9.204;2022-09-25T13:58:20;23.40;57.80
49511;DHT22;35413;48.776;9.204;2022-09-25T14:03:30;23.40;57.70
49511;DHT22;35413;48.776;9.204;2022-09-25T14:05:58;23.40;57.70
49511;DHT22;35413;48.776;9.204;2022-09-25T14:08:26;23.40;57.60
49511;DHT22;35413;48.776;9.204;2022-09-25T14:10:55;23.40;58.20
49511;DHT22;35413;48.776;9.204;2022-09-25T14:13:23;23.30;57.40
49511;DHT22;35413;48.776;9.204;2022-09-25T14:15:50;23.30;57.40
49511;DHT22;35413;48.776;9.204;2022-09-25T14:18:19;23.30;57.40
49511;DHT22;35413;48.776;9.204;2022-09-25T14:20:51;23.30;57.40
49511;DHT22;35413;48.776;9.204;2022-09-25T14:23:26;23.30;57.40
49511;DHT22;35413;48.776;9.204;2022-09-25T14:26:02;23.30;57.20
49511;DHT22;35413;48.776;9.204;2022-09-25T14:28:45;23.30;57.20
49511;DHT22;35413;48.776;9.204;2022-09-25T14:31:33;23.30;57.20
49511;DHT22;35413;48.776;9.204;2022-09-25T14:34:23;23.30;57.20
49511;DHT22;35413;48.776;9.204;2022-09-25T14:43:01;23.30;56.80
49511;DHT22;35413;48.776;9.204;2022-09-25T14:48:11;23.30;56.70
49511;DHT22;35413;48.776;9.204;2022-09-25T14:50:45;23.30;56.80
49511;DHT22;35413;48.776;9.204;2022-09-25T14:53:27;23.40;56.80
49511;DHT22;35413;48.776;9.204;2022-09-25T14:55:55;23.30;56.80
49511;DHT22;35413;48.776;9.204;2022-09-25T14:58:24;23.30;56.90
49511;DHT22;35413;48.776;9.204;2022-09-25T15:00:55;23.30;56.80
49511;DHT22;35413;48.776;9.204;2022-09-25T15:03:26;23.30;57.00
49511;DHT22;35413;48.776;9.204;2022-09-25T15:05:54;23.30;57.30
49511;DHT22;35413;48.776;9.204;2022-09-25T15:08:30;23.30;57.30
49511;DHT22;35413;48.776;9.204;2022-09-25T15:11:07;23.20;57.30
49511;DHT22;35413;48.776;9.204;2022-09-25T15:13:33;23.20;57.20
49511;DHT22;35413;48.776;9.204;2022-09-25T15:16:00;23.20;57.30
49511;DHT22;35413;48.776;9.204;2022-09-25T15:18:48;23.10;57.20
49511;DHT22;35413;48.776;9.204;2022-09-25T15:21:23;23.20;57.30
49511;DHT22;35413;48.776;9.204;2022-09-25T15:23:50;23.10;57.10
49511;DHT22;35413;48.776;9.204;2022-09-25T15:26:17;23.10;57.40
49511;DHT22;35413;48.776;9.204;2022-09-25T15:28:44;23.10;57.20
49511;DHT22;35413;48.776;9.204;2022-09-25T15:31:10;23.10;57.10
49511;DHT22;35413;48.776;9.204;2022-09-25T15:33:37;23.10;57.00
49511;DHT22;35413;48.776;9.204;2022-09-25T15:38:38;23.10;57.10
49511;DHT22;35413;48.776;9.204;2022-09-25T15:41:12;23.10;57.00
49511;DHT22;35413;48.776;9.204;2022-09-25T15:43:39;23.10;57.10
49511;DHT22;35413;48.776;9.204;2022-09-25T15:48:39;23.10;56.90
49511;DHT22;35413;48.776;9.204;2022-09-25T15:51:16;23.10;56.90
49511;DHT22;35413;48.776;9.204;2022-09-25T15:53:52;23.00;56.80
49511;DHT22;35413;48.776;9.204;2022-09-25T15:56:32;23.00;56.80
49511;DHT22;35413;48.776;9.204;2022-09-25T15:59:03;23.00;56.80
49511;DHT22;35413;48.776;9.204;2022-09-25T16:01:32;23.00;56.70
49511;DHT22;35413;48.776;9.204;2022-09-25T16:04:23;23.00;56.60
49511;DHT22;35413;48.776;9.204;2022-09-25T16:09:50;23.00;56.60
49511;DHT22;35413;48.776;9.204;2022-09-25T16:14:53;23.00;56.90
49511;DHT22;35413;48.776;9.204;2022-09-25T16:17:23;23.00;56.80
49511;DHT22;35413;48.776;9.204;2022-09-25T16:20:05;23.10;57.20
49511;DHT22;35413;48.776;9.204;2022-09-25T16:22:37;23.10;57.20
49511;DHT22;35413;48.776;9.204;2022-09-25T16:25:14;23.10;57.00
49511;DHT22;35413;48.776;9.204;2022-09-25T16:27:43;23.00;56.90
49511;DHT22;35413;48.776;9.204;2022-09-25T16:30:19;23.10;57.00
49511;DHT22;35413;48.776;9.204;2022-09-25T16:32:54;23.10;57.10
49511;DHT22;35413;48.776;9.204;2022-09-25T16:35:29;23.20;57.20
49511;DHT22;35413;48.776;9.204;2022-09-25T16:37:56;23.10;57.40
49511;DHT22;35413;48.776;9.204;2022-09-25T16:40:27;23.20;57.60
49511;DHT22;35413;48.776;9.204;2022-09-25T16:42:57;23.10;57.70
49511;DHT22;35413;48.776;9.204;2022-09-25T16:45:28;23.10;55.50
49511;DHT22;35413;48.776;9.204;2022-09-25T16:47:58;23.10;55.30
49511;DHT22;35413;48.776;9.204;2022-09-25T16:50:25;23.00;54.80
49511;DHT22;35413;48.776;9.204;2022-09-25T16:52:52;23.00;55.20
49511;DHT22;35413;48.776;9.204;2022-09-25T16:55:24;23.00;55.70
49511;DHT22;35413;48.776;9.204;2022-09-25T16:57:51;23.10;56.00
49511;DHT22;35413;48.776;9.204;2022-09-25T17:00:24;23.00;56.20
49511;DHT22;35413;48.776;9.204;2022-09-25T17:02:50;23.10;56.30
49511;DHT22;35413;48.776;9.204;2022-09-25T17:05:20;23.00;54.50
49511;DHT22;35413;48.776;9.204;2022-09-25T17:07:52;23.00;53.00
49511;DHT22;35413;48.776;9.204;2022-09-25T17:10:20;22.80;52.40
49511;DHT22;35413;48.776;9.204;2022-09-25T17:12:47;22.60;53.30
49511;DHT22;35413;48.776;9.204;2022-09-25T17:17:49;22.70;54.90
49511;DHT22;35413;48.776;9.204;2022-09-25T17:20:20;22.70;54.80
49511;DHT22;35413;48.776;9.204;2022-09-25T17:22:47;22.80;55.40
49511;DHT22;35413;48.776;9.204;2022-09-25T17:28:05;22.80;55.80
49511;DHT22;35413;48.776;9.204;2022-09-25T17:30:31;22.80;55.80
49511;DHT22;35413;48.776;9.204;2022-09-25T17:32:57;22.80;56.50
49511;DHT22;35413;48.776;9.204;2022-09-25T17:38:12;22.90;56.50
49511;DHT22;35413;48.776;9.204;2022-09-25T17:40:40;22.90;56.70
49511;DHT22;35413;48.776;9.204;2022-09-25T17:43:11;22.90;56.90
49511;DHT22;35413;48.776;9.204;2022-09-25T17:45:43;22.90;56.80
49511;DHT22;35413;48.776;9.204;2022-09-25T17:48:10;23.00;56.90
49511;DHT22;35413;48.776;9.204;2022-09-25T17:50:36;23.00;57.00
49511;DHT22;35413;48.776;9.204;2022-09-25T17:53:11;23.00;57.20
49511;DHT22;35413;48.776;9.204;2022-09-25T17:55:39;23.00;57.50
49511;DHT22;35413;48.776;9.204;2022-09-25T17:58:04;22.90;57.30
49511;DHT22;35413;48.776;9.204;2022-09-25T18:00:30;23.00;57.50
49511;DHT22;35413;48.776;9.204;2022-09-25T18:02:56;22.90;57.30
49511;DHT22;35413;48.776;9.204;2022-09-25T18:05:21;22.90;57.30
49511;DHT22;35413;48.776;9.204;2022-09-25T18:07:48;23.00;57.30
49511;DHT22;35413;48.776;9.204;2022-09-25T18:10:14;23.00;57.30
49511;DHT22;35413;48.776;9.204;2022-09-25T18:12:40;23.00;57.40
49511;DHT22;35413;48.776;9.204;2022-09-25T18:15:06;23.00;57.40
49511;DHT22;35413;48.776;9.204;2022-09-25T18:17:31;23.00;57.50
49511;DHT22;35413;48.776;9.204;2022-09-25T18:19:57;23.00;57.50
49511;DHT22;35413;48.776;9.204;2022-09-25T18:22:41;22.90;57.50
49511;DHT22;35413;48.776;9.204;2022-09-25T18:25:08;23.00;57.60
49511;DHT22;35413;48.776;9.204;2022-09-25T18:27:37;23.00;57.60
49511;DHT22;35413;48.776;9.204;2022-09-25T18:30:04;23.00;57.60